Terminal Aerodrome Forecast
Issued by NWS Jacksonville, FL

Home | Current Version | Previous Version | Text Only | Print | Product List | Glossary On
Versions: 1 2 3 4 5 6 7 8 9 10 11 12 13 14 15 16 17 18 19 20 21 22 23 24 25 26 27 28 29 30 31 32 33 34 35
000
FTUS42 KJAX 190500
TAFJAX
TAF
KJAX 190520Z 1906/2006 VRB02KT P6SM FEW020 OVC250
      TEMPO 1908/1911 4SM BR
     FM191500 06005KT P6SM VCSH SCT025 BKN250
     FM191900 07007KT P6SM -SHRA VCTS OVC035CB
      TEMPO 1920/1924 3SM TSRA OVC025CB
     FM200400 07003KT P6SM VCSH BKN040 BKN250=

USA.gov is the U.S. government's official web portal to all federal, state and local government web resources and services.